| time (UTC) | temp F | wind direction | speed MPH | gust MPH | rain 1hr in | rain 24hr in | rain mn in | humidity % | barometer mb |
| 20260906130050 | 76 | 90 | 0.0 | 0.0 | 0.00 | 0.03 | 0.00 | 73 | 1010.7 |
| 20260906125039 | 74 | 190 | 0.0 | 0.0 | 0.00 | 0.03 | 0.00 | 79 | 1010.7 |
| 20260906121738 | 73 | 190 | 0.0 | 0.0 | 0.00 | 0.03 | 0.00 | 82 | 1010.6 |
| 20260906120706 | 73 | 293 | 0.0 | 0.0 | 0.00 | 0.03 | 0.00 | 81 | 1010.3 |
| 20260906115648 | 74 | 314 | 0.0 | 0.0 | 0.00 | 0.03 | 0.00 | 78 | 1010.1 |
| 20260906114655 | 74 | 314 | 0.0 | 0.0 | 0.00 | 0.03 | 0.00 | 77 | 1010.1 |
| 20260906112525 | 74 | 313 | 0.0 | 0.0 | 0.00 | 0.03 | 0.00 | 78 | 1009.8 |
| 20260906111532 | 73 | 0 | 0.0 | 0.0 | 0.00 | 0.03 | 0.00 | 80 | 1009.8 |
| 20260906110517 | 74 | 336 | 0.0 | 0.0 | 0.00 | 0.03 | 0.00 | 79 | 1009.5 |
| 20260906105540 | 73 | 336 | 0.0 | 0.0 | 0.00 | 0.03 | 0.00 | 81 | 1009.4 |
| 20260906103351 | 74 | 342 | 0.0 | 0.0 | 0.00 | 0.03 | 0.00 | 80 | 1009.3 |
| 20260906100139 | 75 | 342 | 0.0 | 0.0 | 0.00 | 0.03 | 0.00 | 78 | 1009.3 |
| 20260906095148 | 75 | 355 | 0.0 | 0.0 | 0.00 | 0.03 | 0.00 | 80 | 1009.6 |
| 20260906094114 | 74 | 42 | 0.0 | 0.0 | 0.00 | 0.03 | 0.00 | 81 | 1009.8 |
| 20260906093050 | 75 | 42 | 0.0 | 0.0 | 0.00 | 0.03 | 0.00 | 80 | 1009.8 |
| 20260906090855 | 74 | 85 | 0.0 | 0.0 | 0.00 | 0.03 | 0.00 | 79 | 1010.1 |
| 20260906085841 | 75 | 19 | 0.0 | 0.0 | 0.00 | 0.03 | 0.00 | 80 | 1010.1 |
| 20260906084812 | 74 | 0 | 0.0 | 0.0 | 0.00 | 0.03 | 0.00 | 81 | 1010.1 |
| 20260906083809 | 75 | 347 | 0.0 | 0.0 | 0.00 | 0.03 | 0.00 | 79 | 1009.9 |
| 20260906082752 | 75 | 101 | 0.0 | 0.0 | 0.00 | 0.03 | 0.00 | 79 | 1009.9 |
| 20260906081722 | 74 | 351 | 0.0 | 0.0 | 0.00 | 0.03 | 0.00 | 81 | 1009.9 |
| 20260906080709 | 74 | 114 | 0.0 | 0.0 | 0.00 | 0.03 | 0.00 | 80 | 1009.4 |
| 20260906075706 | 74 | 205 | 0.0 | 0.0 | 0.00 | 0.03 | 0.00 | 81 | 1009.3 |
| 20260906074633 | 74 | 88 | 0.0 | 0.0 | 0.00 | 0.03 | 0.00 | 80 | 1009.3 |
| 20260906073655 | 75 | 34 | 0.0 | 0.0 | 0.00 | 0.03 | 0.00 | 79 | 1009.5 |
| 20260906071556 | 73 | 136 | 0.0 | 0.0 | 0.00 | 0.03 | 0.00 | 83 | 1009.6 |
| 20260906070602 | 74 | 123 | 0.0 | 1.0 | 0.00 | 0.03 | 0.00 | 83 | 1010.0 |
| 20260906065557 | 75 | 157 | 0.0 | 0.0 | 0.00 | 0.03 | 0.00 | 83 | 1009.8 |
| 20260906064611 | 74 | 304 | 0.0 | 0.0 | 0.00 | 0.03 | 0.00 | 84 | 1009.8 |
| 20260906061309 | 77 | 112 | 0.0 | 0.0 | 0.00 | 0.03 | 0.00 | 73 | 1009.8 |
| 20260906060301 | 78 | 109 | 0.0 | 0.0 | 0.00 | 0.03 | 0.00 | 71 | 1009.8 |
| 20260906055312 | 78 | 109 | 0.0 | 0.0 | 0.00 | 0.03 | 0.00 | 72 | 1009.7 |
| 20260906054253 | 77 | 107 | 0.0 | 0.0 | 0.00 | 0.03 | 0.00 | 72 | 1009.7 |
| 20260906053220 | 77 | 107 | 0.0 | 0.0 | 0.00 | 0.03 | 0.00 | 74 | 1009.7 |
| 20260906051105 | 79 | 106 | 0.0 | 0.0 | 0.00 | 0.03 | 0.00 | 68 | 1009.8 |
| 20260906045005 | 80 | 97 | 0.0 | 0.0 | 0.00 | 0.03 | 0.00 | 67 | 1010.2 |
| 20260906043931 | 80 | 82 | 0.0 | 0.0 | 0.00 | 0.03 | 0.00 | 67 | 1010.3 |
| 20260906042900 | 80 | 82 | 0.0 | 0.0 | 0.00 | 0.03 | 0.00 | 66 | 1010.3 |
| 20260906041839 | 79 | 82 | 0.0 | 0.0 | 0.00 | 0.03 | 0.00 | 67 | 1010.3 |
| 20260906040834 | 80 | 82 | 0.0 | 0.0 | 0.00 | 0.03 | 0.00 | 67 | 1010.3 |
| 20260906034721 | 81 | 82 | 0.0 | 0.0 | 0.00 | 0.03 | 0.03 | 63 | 1010.3 |
| 20260906033738 | 82 | 82 | 0.0 | 0.0 | 0.00 | 0.03 | 0.03 | 62 | 1010.3 |
| 20260906032749 | 81 | 82 | 0.0 | 0.0 | 0.00 | 0.03 | 0.03 | 66 | 1010.3 |
| 20260906031715 | 79 | 82 | 0.0 | 0.0 | 0.00 | 0.03 | 0.03 | 70 | 1010.3 |
| 20260906030657 | 79 | 82 | 0.0 | 0.0 | 0.00 | 0.03 | 0.03 | 70 | 1010.3 |
| 20260906025718 | 79 | 82 | 0.0 | 0.0 | 0.00 | 0.03 | 0.03 | 71 | 1010.2 |
| 20260906023529 | 78 | 82 | 0.0 | 0.0 | 0.00 | 0.03 | 0.03 | 72 | 1009.9 |
| 20260906022537 | 78 | 82 | 0.0 | 0.0 | 0.00 | 0.03 | 0.03 | 72 | 1010.0 |
| 20260906020445 | 79 | 82 | 0.0 | 0.0 | 0.00 | 0.03 | 0.03 | 69 | 1009.7 |
| 20260906015416 | 81 | 82 | 0.0 | 0.0 | 0.00 | 0.03 | 0.03 | 68 | 1009.6 |
| 20260906014357 | 81 | 82 | 0.0 | 0.0 | 0.00 | 0.03 | 0.03 | 66 | 1009.6 |
| 20260906013327 | 82 | 82 | 0.0 | 0.0 | 0.00 | 0.03 | 0.03 | 64 | 1009.6 |
| 20260906011221 | 80 | 82 | 0.0 | 0.0 | 0.00 | 0.03 | 0.03 | 68 | 1009.2 |
| 20260906010149 | 79 | 82 | 0.0 | 0.0 | 0.00 | 0.03 | 0.03 | 70 | 1009.2 |
| 20260906005155 | 81 | 82 | 0.0 | 0.0 | 0.00 | 0.03 | 0.03 | 66 | 1009.1 |
| 20260906004212 | 81 | 82 | 0.0 | 0.0 | 0.00 | 0.03 | 0.03 | 66 | 1009.0 |
| 20260906003157 | 80 | 82 | 0.0 | 0.0 | 0.00 | 0.03 | 0.03 | 67 | 1009.0 |
| 20260906002205 | 80 | 82 | 0.0 | 0.0 | 0.00 | 0.03 | 0.03 | 67 | 1009.0 |
| 20260906001136 | 79 | 82 | 0.0 | 0.0 | 0.00 | 0.03 | 0.03 | 68 | 1009.0 |
| 20260906000158 | 81 | 82 | 0.0 | 0.0 | 0.00 | 0.03 | 0.03 | 65 | 1009.0 |
| 20260905235207 | 81 | 82 | 0.0 | 0.0 | 0.00 | 0.03 | 0.03 | 67 | 1009.3 |
| 20260905233018 | 80 | 82 | 0.0 | 0.0 | 0.00 | 0.03 | 0.03 | 67 | 1009.3 |
| 20260905231952 | 80 | 82 | 0.0 | 0.0 | 0.00 | 0.03 | 0.03 | 67 | 1009.0 |
| 20260905230936 | 81 | 82 | 0.0 | 0.0 | 0.00 | 0.03 | 0.03 | 67 | 1008.8 |
| 20260905224747 | 82 | 68 | 0.0 | 0.0 | 0.00 | 0.03 | 0.03 | 67 | 1008.7 |
| 20260905223712 | 84 | 67 | 0.0 | 0.0 | 0.00 | 0.03 | 0.03 | 64 | 1008.6 |
| 20260905222720 | 81 | 96 | 0.0 | 0.0 | 0.00 | 0.03 | 0.03 | 68 | 1008.7 |
| 20260905221658 | 81 | 94 | 0.0 | 0.0 | 0.00 | 0.03 | 0.03 | 65 | 1008.7 |
| 20260905215523 | 85 | 111 | 0.0 | 0.0 | 0.00 | 0.03 | 0.03 | 66 | 1009.4 |
| 20260905213412 | 84 | 74 | 0.0 | 0.0 | 0.00 | 0.03 | 0.03 | 71 | 1009.4 |
| 20260905212357 | 83 | 80 | 0.0 | 0.0 | 0.00 | 0.03 | 0.03 | 69 | 1009.3 |
| 20260905211331 | 83 | 80 | 0.0 | 0.0 | 0.00 | 0.03 | 0.03 | 68 | 1009.2 |
| 20260905210356 | 84 | 120 | 0.0 | 0.0 | 0.00 | 0.03 | 0.03 | 65 | 1009.2 |
| 20260905205405 | 87 | 123 | 0.0 | 0.0 | 0.00 | 0.03 | 0.03 | 64 | 1009.2 |
| 20260905203255 | 88 | 132 | 0.0 | 0.0 | 0.00 | 0.03 | 0.03 | 63 | 1009.1 |
| 20260905202251 | 89 | 342 | 0.0 | 0.0 | 0.00 | 0.03 | 0.03 | 59 | 1009.4 |
| 20260905201251 | 88 | 341 | 0.0 | 0.0 | 0.00 | 0.03 | 0.03 | 67 | 1009.5 |
| 20260905200240 | 87 | 341 | 0.0 | 0.0 | 0.00 | 0.03 | 0.03 | 68 | 1009.5 |
| 20260905195306 | 85 | 341 | 0.0 | 0.0 | 0.00 | 0.03 | 0.03 | 70 | 1009.9 |
| 20260905194229 | 83 | 341 | 0.0 | 0.0 | 0.00 | 0.03 | 0.03 | 74 | 1009.8 |
| 20260905193228 | 83 | 341 | 0.0 | 0.0 | 0.00 | 0.03 | 0.03 | 77 | 1009.8 |
| 20260905191100 | 80 | 342 | 0.0 | 0.0 | 0.04 | 0.03 | 0.03 | 82 | 1010.0 |
| 20260905190028 | 79 | 344 | 0.0 | 0.0 | 0.08 | 0.03 | 0.03 | 82 | 1010.0 |
| 20260905185037 | 82 | 336 | 0.0 | 0.0 | 0.15 | 0.02 | 0.02 | 76 | 1010.4 |
| 20260905184037 | 89 | 125 | 0.0 | 0.0 | 0.00 | 0.00 | 0.00 | 55 | 1010.4 |
| 20260905181916 | 87 | 343 | 0.0 | 0.0 | 0.00 | 0.00 | 0.00 | 68 | 1010.4 |
| 20260905175743 | 90 | 338 | 0.0 | 0.0 | 0.00 | 0.00 | 0.00 | 60 | 1010.5 |
| 20260905173601 | 88 | 117 | 0.0 | 0.0 | 0.00 | 0.00 | 0.00 | 58 | 1010.8 |
| 20260905172607 | 88 | 186 | 0.0 | 0.0 | 0.00 | 0.00 | 0.00 | 58 | 1011.0 |
| 20260905171556 | 89 | 262 | 0.0 | 0.0 | 0.00 | 0.00 | 0.00 | 57 | 1011.0 |
| 20260905170549 | 89 | 150 | 0.0 | 0.0 | 0.00 | 0.00 | 0.00 | 59 | 1011.0 |
| 20260905165603 | 88 | 105 | 0.0 | 0.0 | 0.00 | 0.00 | 0.00 | 62 | 1011.2 |
| 20260905163446 | 86 | 85 | 0.0 | 0.0 | 0.00 | 0.00 | 0.00 | 68 | 1011.5 |
| 20260905162452 | 86 | 330 | 0.0 | 0.0 | 0.00 | 0.00 | 0.00 | 64 | 1011.6 |
| 20260905161450 | 85 | 160 | 0.0 | 0.0 | 0.00 | 0.00 | 0.00 | 69 | 1011.6 |
| 20260905160421 | 85 | 161 | 0.0 | 0.0 | 0.00 | 0.00 | 0.00 | 69 | 1011.6 |
| 20260905154857 | 86 | 199 | 0.0 | 0.0 | 0.00 | 0.00 | 0.00 | 68 | 1011.7 |
| 20260905154656 | 86 | 199 | 0.0 | 0.0 | 0.00 | 0.00 | 0.00 | 67 | 1011.7 |
| 20260905154411 | 85 | 0 | 0.0 | 0.0 | 0.00 | 0.00 | 0.00 | 69 | 1011.7 |
| 20260905152223 | 86 | 304 | 0.0 | 0.0 | 0.00 | 0.00 | 0.00 | 66 | 1011.8 |
| 20260905150036 | 84 | 263 | 0.0 | 0.0 | 0.00 | 0.00 | 0.00 | 69 | 1011.8 |
| 20260905145024 | 83 | 267 | 0.0 | 0.0 | 0.00 | 0.00 | 0.00 | 68 | 1012.0 |
| 20260905144001 | 83 | 247 | 0.0 | 0.0 | 0.00 | 0.00 | 0.00 | 69 | 1012.0 |
| 20260905141815 | 83 | 291 | 0.0 | 0.0 | 0.00 | 0.00 | 0.00 | 67 | 1012.1 |
| 20260905140755 | 82 | 291 | 0.0 | 0.0 | 0.00 | 0.00 | 0.00 | 69 | 1012.1 |
| 20260905135720 | 82 | 296 | 0.0 | 0.0 | 0.00 | 0.00 | 0.00 | 69 | 1012.1 |
| 20260905134659 | 82 | 296 | 0.0 | 0.0 | 0.00 | 0.00 | 0.00 | 69 | 1012.1 |
| 20260905132519 | 80 | 296 | 0.0 | 0.0 | 0.00 | 0.00 | 0.00 | 75 | 1012.3 |
| 20260905131519 | 80 | 296 | 0.0 | 0.0 | 0.00 | 0.00 | 0.00 | 75 | 1012.3 |